Time;durP1;ratioP1;P1;durP2;ratioP2;P2;SDS_P1;SDS_P2;PMS_P1;PMS_P2;Temp;Humidity;BMP_temperature;BMP_pressure;BME280_temperature;BME280_humidity;BME280_pressure;Samples;Min_cycle;Max_cycle;Signal;HPM_P1;HPM_P2
2022/09/11 00:00:36;;;;;;;0.98;0.93;;;23.40;47.70;;;;;;5051615;28;20076;-10
2022/09/11 00:03:01;;;;;;;1.00;0.90;;;23.40;47.80;;;;;;5051179;28;20057;-9
2022/09/11 00:05:27;;;;;;;1.00;1.00;;;23.40;47.80;;;;;;5051751;28;20084;-10
2022/09/11 00:07:53;;;;;;;1.27;1.17;;;23.40;47.80;;;;;;5051376;28;20493;-9
2022/09/11 00:10:18;;;;;;;1.10;1.00;;;23.40;47.70;;;;;;5051262;28;20488;-10
2022/09/11 00:12:44;;;;;;;1.27;1.17;;;23.40;47.80;;;;;;5051232;28;20422;-10
2022/09/11 00:15:11;;;;;;;0.90;0.90;;;23.40;47.70;;;;;;5051280;28;20498;-10
2022/09/11 00:17:38;;;;;;;1.27;1.17;;;23.40;47.80;;;;;;5051558;28;20502;-9
2022/09/11 00:20:06;;;;;;;0.90;0.90;;;23.40;47.80;;;;;;5050868;28;20079;-9
2022/09/11 00:22:32;;;;;;;1.35;1.10;;;23.40;47.80;;;;;;5051312;28;20053;-9
2022/09/11 00:24:58;;;;;;;0.90;0.90;;;23.40;47.80;;;;;;5050995;28;20166;-9
2022/09/11 00:27:24;;;;;;;1.27;1.15;;;23.40;47.80;;;;;;5050921;28;20057;-10
2022/09/11 00:29:50;;;;;;;1.25;1.08;;;23.40;47.80;;;;;;5051187;28;20069;-10
2022/09/11 00:32:15;;;;;;;1.20;1.10;;;23.40;47.80;;;;;;5032525;28;20060;-10
2022/09/11 00:34:41;;;;;;;1.35;1.00;;;23.40;47.80;;;;;;5051123;28;20053;-10
2022/09/11 00:37:08;;;;;;;1.42;1.20;;;23.40;47.80;;;;;;5049648;28;20048;-9
2022/09/11 00:39:34;;;;;;;1.00;1.00;;;23.40;47.80;;;;;;5051005;28;20061;-10
2022/09/11 00:41:59;;;;;;;1.10;1.00;;;23.40;47.80;;;;;;5048971;28;20478;-10
2022/09/11 00:44:27;;;;;;;1.00;1.00;;;23.40;47.80;;;;;;5033574;28;20056;-10
2022/09/11 00:47:01;;;;;;;1.15;1.05;;;23.40;47.80;;;;;;5050819;28;20110;-9
2022/09/11 00:49:45;;;;;;;1.20;1.10;;;23.40;47.80;;;;;;5032955;28;20041;-9
2022/09/11 00:52:21;;;;;;;1.00;1.00;;;23.40;47.80;;;;;;5050876;28;20089;-10
2022/09/11 00:54:58;;;;;;;1.10;1.10;;;23.40;47.80;;;;;;5033396;28;20144;-10
2022/09/11 00:57:29;;;;;;;1.10;1.00;;;23.40;47.80;;;;;;5050723;28;20057;-10
2022/09/11 00:59:58;;;;;;;1.08;1.00;;;23.40;47.80;;;;;;5050514;28;20045;-10
2022/09/11 01:02:26;;;;;;;1.35;1.20;;;23.40;47.80;;;;;;5050412;28;20470;-9
2022/09/11 01:04:53;;;;;;;2.03;1.20;;;23.40;47.80;;;;;;5050544;28;20061;-9
2022/09/11 01:07:20;;;;;;;1.25;1.15;;;23.40;47.80;;;;;;5031741;28;20060;-10
2022/09/11 01:09:46;;;;;;;1.10;1.10;;;23.40;47.80;;;;;;5050285;28;20060;-9
2022/09/11 01:12:33;;;;;;;1.23;1.13;;;23.40;47.80;;;;;;5050852;28;20072;-10
2022/09/11 01:15:12;;;;;;;1.30;1.20;;;23.40;47.80;;;;;;5050643;28;20060;-9
2022/09/11 01:17:54;;;;;;;1.25;1.10;;;23.40;47.80;;;;;;5048271;28;20057;-10
2022/09/11 01:20:42;;;;;;;1.20;1.10;;;23.40;47.80;;;;;;5032481;28;20049;-9
2022/09/11 01:23:21;;;;;;;1.30;1.20;;;23.40;47.80;;;;;;5050422;28;20053;-10
2022/09/11 01:26:17;;;;;;;1.27;1.10;;;23.40;47.80;;;;;;5050487;28;20053;-9
2022/09/11 01:28:59;;;;;;;1.40;1.30;;;23.40;47.80;;;;;;5050272;28;20052;-9
2022/09/11 01:31:32;;;;;;;1.40;1.30;;;23.40;47.80;;;;;;5050653;28;20053;-9
2022/09/11 01:34:04;;;;;;;1.38;1.27;;;23.40;47.80;;;;;;5033006;28;20053;-10
2022/09/11 01:36:43;;;;;;;1.77;1.30;;;23.40;47.80;;;;;;5050470;28;20048;-10
2022/09/11 01:39:11;;;;;;;1.05;1.05;;;23.40;47.80;;;;;;5032336;28;20140;-10
2022/09/11 01:41:50;;;;;;;1.55;1.13;;;23.40;47.80;;;;;;5032302;28;20151;-10
2022/09/11 01:44:17;;;;;;;1.40;1.30;;;23.40;48.30;;;;;;5032297;28;20049;-10
2022/09/11 01:46:49;;;;;;;1.42;1.33;;;23.40;47.90;;;;;;5048957;28;20056;-10
2022/09/11 01:49:39;;;;;;;1.70;1.42;;;23.40;47.80;;;;;;5032300;28;20071;-10
2022/09/11 01:52:10;;;;;;;1.33;1.23;;;23.40;47.80;;;;;;5048673;28;20049;-10
2022/09/11 01:54:45;;;;;;;1.60;1.50;;;23.40;47.80;;;;;;5050099;28;20060;-9
2022/09/11 01:57:19;;;;;;;1.35;1.25;;;23.40;47.80;;;;;;5030481;28;20053;-10
2022/09/11 01:59:56;;;;;;;1.30;1.20;;;23.40;47.80;;;;;;5030446;28;20084;-9
2022/09/11 02:02:29;;;;;;;1.40;1.30;;;23.40;47.80;;;;;;5049898;28;20095;-9
2022/09/11 02:05:25;;;;;;;1.40;1.30;;;23.40;47.70;;;;;;5028275;28;20136;-9
2022/09/11 02:07:58;;;;;;;1.58;1.48;;;23.40;47.80;;;;;;5031321;28;20053;-10
2022/09/11 02:10:31;;;;;;;1.20;1.10;;;23.40;47.80;;;;;;5032278;28;20056;-10
2022/09/11 02:13:22;;;;;;;1.70;1.52;;;23.40;47.80;;;;;;5032478;28;20049;-10
2022/09/11 02:15:54;;;;;;;1.55;1.45;;;23.40;47.80;;;;;;5049570;28;20060;-10
2022/09/11 02:18:40;;;;;;;1.40;1.30;;;23.40;47.80;;;;;;5031624;28;20051;-10
2022/09/11 02:21:06;;;;;;;1.30;1.20;;;23.40;47.80;;;;;;5031629;28;20057;-9
2022/09/11 02:23:32;;;;;;;1.38;1.27;;;23.40;47.80;;;;;;5049708;28;20056;-10
2022/09/11 02:25:57;;;;;;;1.38;1.27;;;23.30;47.80;;;;;;5048610;28;20197;-10
2022/09/11 02:28:24;;;;;;;1.60;1.50;;;23.30;47.80;;;;;;5049353;28;20149;-10
2022/09/11 02:30:50;;;;;;;1.60;1.50;;;23.30;47.80;;;;;;5049776;28;20493;-9
2022/09/11 02:33:31;;;;;;;1.40;1.30;;;23.40;47.90;;;;;;5048766;28;20106;-9
2022/09/11 02:36:17;;;;;;;1.20;1.10;;;23.40;47.90;;;;;;5031523;28;20045;-10
2022/09/11 02:39:09;;;;;;;1.60;1.50;;;23.40;47.90;;;;;;5031753;28;20136;-10
2022/09/11 02:42:12;;;;;;;1.17;1.08;;;23.30;47.80;;;;;;5052176;28;20054;-9
2022/09/11 02:45:16;;;;;;;1.33;1.23;;;23.30;47.80;;;;;;5047992;28;20049;-9
2022/09/11 02:48:05;;;;;;;1.60;1.50;;;23.40;47.80;;;;;;5047431;28;20053;-10
2022/09/11 02:50:43;;;;;;;1.40;1.30;;;23.30;47.80;;;;;;5047804;28;20502;-10
2022/09/11 02:53:23;;;;;;;1.63;1.50;;;23.40;48.40;;;;;;5031300;28;20509;-10
2022/09/11 02:56:02;;;;;;;1.63;1.52;;;23.30;47.80;;;;;;5049343;28;20135;-10
2022/09/11 02:58:35;;;;;;;1.60;1.50;;;23.30;47.80;;;;;;5031262;28;20135;-10
2022/09/11 03:01:03;;;;;;;1.48;1.35;;;23.40;47.80;;;;;;5031532;28;20049;-10
2022/09/11 03:03:44;;;;;;;1.85;1.40;;;23.40;47.90;;;;;;5031095;28;20494;-10
2022/09/11 03:06:22;;;;;;;1.40;1.30;;;23.40;47.80;;;;;;5032601;28;20060;-10
2022/09/11 03:08:48;;;;;;;1.50;1.40;;;23.30;47.80;;;;;;5034042;28;20052;-10
2022/09/11 03:11:16;;;;;;;1.60;1.50;;;23.40;47.90;;;;;;5052516;28;20363;-10
2022/09/11 03:13:44;;;;;;;1.67;1.58;;;23.40;47.90;;;;;;5034318;28;20057;-10
2022/09/11 03:16:11;;;;;;;1.63;1.52;;;23.30;47.80;;;;;;5033893;28;20056;-9
2022/09/11 03:18:38;;;;;;;1.60;1.50;;;23.30;47.90;;;;;;5052060;28;20049;-10
2022/09/11 03:21:04;;;;;;;1.30;1.20;;;23.30;47.80;;;;;;5034155;28;20056;-10
2022/09/11 03:23:30;;;;;;;1.50;1.40;;;23.30;47.90;;;;;;5033971;28;20057;-10
2022/09/11 03:25:57;;;;;;;1.90;1.80;;;23.30;47.90;;;;;;5034196;28;20451;-9
2022/09/11 03:28:23;;;;;;;1.60;1.50;;;23.30;47.90;;;;;;5051427;28;20049;-10
2022/09/11 03:30:49;;;;;;;1.48;1.38;;;23.30;47.80;;;;;;5033934;28;20108;-9
2022/09/11 03:33:18;;;;;;;1.60;1.50;;;23.30;47.90;;;;;;5033829;28;20060;-10
2022/09/11 03:35:44;;;;;;;1.63;1.52;;;23.30;48.40;;;;;;5120042;28;20065;-10
2022/09/11 03:38:11;;;;;;;1.77;1.52;;;23.30;47.90;;;;;;5048522;28;20053;-9
2022/09/11 03:40:40;;;;;;;1.70;1.60;;;23.30;47.90;;;;;;5034163;28;20063;-10
2022/09/11 03:43:06;;;;;;;1.58;1.48;;;23.30;47.90;;;;;;5033668;28;20064;-10
2022/09/11 03:45:31;;;;;;;1.75;1.65;;;23.30;47.90;;;;;;5051643;28;20422;-9
2022/09/11 03:47:57;;;;;;;1.55;1.45;;;23.30;48.00;;;;;;5049900;28;20052;-10
2022/09/11 03:50:23;;;;;;;1.58;1.48;;;23.30;47.90;;;;;;5033580;28;20067;-10
2022/09/11 03:52:49;;;;;;;1.63;1.52;;;23.30;48.00;;;;;;5051527;28;20053;-10
2022/09/11 03:55:15;;;;;;;1.85;1.75;;;23.30;47.90;;;;;;5033598;28;20079;-10
2022/09/11 03:57:42;;;;;;;1.40;1.30;;;23.30;47.90;;;;;;5034153;28;20099;-10
2022/09/11 04:00:10;;;;;;;1.70;1.60;;;23.30;47.90;;;;;;5033409;28;20052;-9
2022/09/11 04:02:48;;;;;;;1.50;1.33;;;23.30;47.90;;;;;;5051464;28;20049;-9
2022/09/11 04:05:24;;;;;;;1.40;1.30;;;23.30;47.90;;;;;;5033390;28;20053;-10
2022/09/11 04:07:52;;;;;;;1.60;1.50;;;23.30;47.90;;;;;;5049911;28;20060;-9
2022/09/11 04:10:19;;;;;;;1.30;1.20;;;23.30;47.90;;;;;;5033396;28;20562;-9
2022/09/11 04:12:45;;;;;;;1.70;1.60;;;23.30;48.00;;;;;;5033674;28;20056;-10
2022/09/11 04:15:12;;;;;;;1.90;1.60;;;23.30;48.00;;;;;;5029663;28;20445;-9
2022/09/11 04:17:39;;;;;;;1.60;1.50;;;23.30;48.00;;;;;;5033133;28;20057;-11
2022/09/11 04:20:05;;;;;;;1.50;1.40;;;23.30;48.00;;;;;;5051139;28;20139;-9
2022/09/11 04:22:31;;;;;;;1.63;1.52;;;23.30;48.00;;;;;;5033274;28;20049;-10
2022/09/11 04:24:56;;;;;;;1.80;1.70;;;23.30;48.00;;;;;;5033244;28;20405;-10
2022/09/11 04:27:23;;;;;;;1.75;1.65;;;23.30;48.00;;;;;;5051057;28;20053;-9
2022/09/11 04:29:50;;;;;;;1.67;1.58;;;23.30;48.00;;;;;;5031898;28;20060;-10
2022/09/11 04:32:16;;;;;;;1.80;1.67;;;23.30;48.00;;;;;;5051315;28;20053;-9
2022/09/11 04:34:42;;;;;;;1.85;1.75;;;23.30;48.00;;;;;;5049186;28;20490;-9
2022/09/11 04:37:07;;;;;;;1.50;1.40;;;23.30;48.00;;;;;;5050893;28;20076;-10
2022/09/11 04:39:34;;;;;;;1.77;1.67;;;23.30;48.00;;;;;;5030994;28;20410;-10
2022/09/11 04:42:01;;;;;;;2.13;1.70;;;23.30;48.00;;;;;;5033447;28;20101;-10
2022/09/11 04:44:28;;;;;;;1.65;1.55;;;23.30;48.00;;;;;;5048880;28;20056;-9
2022/09/11 04:46:55;;;;;;;1.60;1.50;;;23.30;48.00;;;;;;5032898;28;20561;-9
2022/09/11 04:49:22;;;;;;;2.00;1.90;;;23.30;48.00;;;;;;5029882;28;20506;-10
2022/09/11 04:51:48;;;;;;;1.75;1.65;;;23.30;48.00;;;;;;5033138;28;20053;-9
2022/09/11 04:54:20;;;;;;;2.00;1.80;;;23.30;48.00;;;;;;5049458;28;20129;-10
2022/09/11 04:56:46;;;;;;;1.60;1.50;;;23.30;48.00;;;;;;5050715;28;20060;-10
2022/09/11 04:59:22;;;;;;;1.90;1.60;;;23.30;48.00;;;;;;5050413;28;20053;-10
2022/09/11 05:01:54;;;;;;;1.55;1.45;;;23.30;48.00;;;;;;5049564;28;20057;-10
2022/09/11 05:04:19;;;;;;;1.95;1.70;;;23.30;48.50;;;;;;5032774;28;20052;-9
2022/09/11 05:06:47;;;;;;;1.67;1.38;;;23.30;48.00;;;;;;5050643;28;20402;-10
2022/09/11 05:09:15;;;;;;;1.55;1.45;;;23.30;48.00;;;;;;5031719;28;20114;-10
2022/09/11 05:11:41;;;;;;;1.85;1.70;;;23.30;48.10;;;;;;5032970;28;20476;-10
2022/09/11 05:14:08;;;;;;;1.48;1.38;;;23.30;48.10;;;;;;5032764;28;20140;-10
2022/09/11 05:16:36;;;;;;;1.45;1.35;;;23.30;48.10;;;;;;5033165;28;20113;-10
2022/09/11 05:19:03;;;;;;;1.60;1.50;;;23.30;48.00;;;;;;5031900;28;20088;-10
2022/09/11 05:21:31;;;;;;;1.83;1.70;;;23.30;48.00;;;;;;5049150;28;20044;-10
2022/09/11 05:23:59;;;;;;;2.08;1.88;;;23.30;48.10;;;;;;5050450;28;20053;-10
2022/09/11 05:26:30;;;;;;;1.90;1.70;;;23.30;48.00;;;;;;5032841;28;20073;-10
2022/09/11 05:28:59;;;;;;;1.80;1.70;;;23.30;48.00;;;;;;5031814;28;20097;-10
2022/09/11 05:31:27;;;;;;;1.60;1.50;;;23.30;48.00;;;;;;5032476;28;20057;-10
2022/09/11 05:33:59;;;;;;;2.10;1.90;;;23.30;48.00;;;;;;5032764;28;20057;-9
2022/09/11 05:36:26;;;;;;;1.63;1.52;;;23.30;48.10;;;;;;5033089;28;20417;-10
2022/09/11 05:38:52;;;;;;;2.25;2.05;;;23.30;48.10;;;;;;5031992;28;20053;-10
2022/09/11 05:41:19;;;;;;;1.80;1.70;;;23.30;48.10;;;;;;5032540;28;20068;-10
2022/09/11 05:43:45;;;;;;;1.60;1.50;;;23.20;48.00;;;;;;5032403;28;20429;-9
2022/09/11 05:46:12;;;;;;;1.60;1.50;;;23.20;48.00;;;;;;5050201;28;20049;-9
2022/09/11 05:48:39;;;;;;;1.70;1.60;;;23.30;48.10;;;;;;5050421;28;20401;-10
2022/09/11 05:51:09;;;;;;;2.25;2.03;;;23.30;48.10;;;;;;5031356;28;20061;-9
2022/09/11 05:53:36;;;;;;;1.77;1.67;;;23.30;48.10;;;;;;5031805;28;20057;-10
2022/09/11 05:56:17;;;;;;;1.95;1.85;;;23.30;48.00;;;;;;5032377;28;20052;-10
2022/09/11 05:58:45;;;;;;;1.70;1.40;;;23.30;48.00;;;;;;5049216;28;20041;-10
2022/09/11 06:01:17;;;;;;;1.75;1.65;;;23.30;48.10;;;;;;5028142;28;20046;-10
2022/09/11 06:03:48;;;;;;;1.77;1.67;;;23.30;48.00;;;;;;5032185;28;20045;-10
2022/09/11 06:06:14;;;;;;;2.33;1.83;;;23.30;48.00;;;;;;5049965;28;20053;-10
2022/09/11 06:08:44;;;;;;;1.80;1.70;;;23.30;48.00;;;;;;5032189;28;20401;-10
2022/09/11 06:11:12;;;;;;;1.83;1.73;;;23.30;48.00;;;;;;5031889;28;20049;-10
2022/09/11 06:13:40;;;;;;;2.00;1.80;;;23.30;48.00;;;;;;5031803;28;20522;-10
2022/09/11 06:16:14;;;;;;;1.75;1.63;;;23.30;48.00;;;;;;5031643;28;20083;-10
2022/09/11 06:18:41;;;;;;;1.70;1.60;;;23.30;48.00;;;;;;5050018;28;20055;-10
2022/09/11 06:21:11;;;;;;;1.60;1.50;;;23.30;48.00;;;;;;5031645;28;20049;-10
2022/09/11 06:23:47;;;;;;;1.73;1.63;;;23.30;48.00;;;;;;5032475;28;20121;-9
2022/09/11 06:26:15;;;;;;;1.55;1.45;;;23.30;47.90;;;;;;5032282;28;20053;-10
2022/09/11 06:28:42;;;;;;;2.17;1.92;;;23.30;47.80;;;;;;5048097;28;20474;-10
2022/09/11 06:31:14;;;;;;;1.83;1.73;;;23.40;47.90;;;;;;5048194;28;20394;-10
2022/09/11 06:33:39;;;;;;;1.60;1.50;;;23.30;47.70;;;;;;5031811;28;20053;-10
2022/09/11 06:36:09;;;;;;;1.98;1.60;;;23.40;47.80;;;;;;5048128;28;20045;-9
2022/09/11 06:38:35;;;;;;;1.60;1.50;;;23.40;47.80;;;;;;5031440;28;20494;-10
2022/09/11 06:41:02;;;;;;;1.80;1.70;;;23.40;47.80;;;;;;5033539;28;20064;-9
2022/09/11 06:43:31;;;;;;;2.00;1.85;;;23.40;47.80;;;;;;5032432;28;20088;-10
2022/09/11 06:46:23;;;;;;;1.65;1.55;;;23.50;47.60;;;;;;5034452;28;20088;-10
2022/09/11 06:48:50;;;;;;;1.80;1.70;;;23.70;47.40;;;;;;5034379;28;20056;-10
2022/09/11 06:51:22;;;;;;;1.90;1.80;;;23.70;47.30;;;;;;5051371;28;20052;-9
2022/09/11 06:53:56;;;;;;;1.90;1.80;;;23.70;47.30;;;;;;5034303;28;20104;-10
2022/09/11 06:56:23;;;;;;;1.90;1.80;;;23.80;47.10;;;;;;5034894;28;20375;-9
2022/09/11 06:58:49;;;;;;;1.67;1.58;;;23.80;47.10;;;;;;5048973;28;20410;-10
2022/09/11 07:01:17;;;;;;;1.55;1.45;;;23.80;47.20;;;;;;5052151;28;20057;-9
2022/09/11 07:03:46;;;;;;;1.75;1.65;;;23.80;47.40;;;;;;5033721;28;20057;-9
2022/09/11 07:06:17;;;;;;;1.60;1.50;;;23.70;47.40;;;;;;5034124;28;20446;-10
2022/09/11 07:08:59;;;;;;;1.80;1.70;;;23.70;47.30;;;;;;5033468;28;20497;-10
2022/09/11 07:11:33;;;;;;;1.80;1.70;;;23.70;47.40;;;;;;5034685;28;20137;-9
2022/09/11 07:14:04;;;;;;;1.83;1.70;;;23.70;47.50;;;;;;5034389;28;20151;-10
2022/09/11 07:16:30;;;;;;;1.70;1.60;;;23.60;47.50;;;;;;5034705;28;20053;-9
2022/09/11 07:18:58;;;;;;;1.70;1.60;;;23.60;47.60;;;;;;5032865;28;20046;-9
2022/09/11 07:21:26;;;;;;;1.92;1.77;;;23.60;47.60;;;;;;5119914;28;20498;-10
2022/09/11 07:23:58;;;;;;;2.22;2.03;;;23.60;47.60;;;;;;5034025;28;20512;-9
2022/09/11 07:26:26;;;;;;;1.90;1.80;;;23.60;47.60;;;;;;5051952;28;20045;-9
2022/09/11 07:28:58;;;;;;;2.38;2.08;;;23.60;47.60;;;;;;5034166;28;20053;-10
2022/09/11 07:31:28;;;;;;;2.03;1.90;;;23.60;47.50;;;;;;5034382;28;20057;-10
2022/09/11 07:33:54;;;;;;;2.20;1.90;;;23.70;47.50;;;;;;5034048;28;20379;-9
2022/09/11 07:36:25;;;;;;;1.95;1.85;;;23.70;47.50;;;;;;5050985;28;20101;-10
2022/09/11 07:38:53;;;;;;;1.90;1.75;;;23.70;47.40;;;;;;5033876;28;20061;-10
2022/09/11 07:41:22;;;;;;;1.88;1.77;;;23.70;47.50;;;;;;5034278;28;20053;-10
2022/09/11 07:43:52;;;;;;;1.77;1.67;;;23.70;47.40;;;;;;5034411;28;20045;-9
2022/09/11 07:46:18;;;;;;;1.88;1.77;;;23.80;47.30;;;;;;5033693;28;20780;-9
2022/09/11 07:48:44;;;;;;;1.80;1.70;;;23.80;47.20;;;;;;5033478;28;20145;-10
2022/09/11 07:51:13;;;;;;;1.90;1.80;;;23.80;47.20;;;;;;5120792;27;20117;-9
2022/09/11 07:53:42;;;;;;;2.40;2.20;;;23.80;47.30;;;;;;5034135;28;20064;-9
2022/09/11 07:56:12;;;;;;;1.92;1.80;;;23.80;47.30;;;;;;5033946;28;20387;-10
2022/09/11 07:58:40;;;;;;;1.90;1.80;;;23.80;47.30;;;;;;5051278;28;20113;-10
2022/09/11 08:01:12;;;;;;;2.13;1.92;;;23.80;47.20;;;;;;5033577;28;20379;-10
2022/09/11 08:03:37;;;;;;;2.08;1.77;;;23.80;47.30;;;;;;5033752;28;20056;-9
2022/09/11 08:06:06;;;;;;;1.70;1.60;;;23.80;47.30;;;;;;5050036;28;20057;-9
2022/09/11 08:08:33;;;;;;;1.60;1.50;;;23.70;47.30;;;;;;5033265;28;20429;-10
2022/09/11 08:11:05;;;;;;;2.20;2.00;;;23.80;47.30;;;;;;5033348;28;20075;-9
2022/09/11 08:13:32;;;;;;;2.10;1.90;;;23.70;47.30;;;;;;5033443;28;20558;-9
2022/09/11 08:15:58;;;;;;;1.92;1.83;;;23.80;47.30;;;;;;5033661;28;20160;-10
2022/09/11 08:18:24;;;;;;;1.80;1.70;;;23.70;47.30;;;;;;5049581;28;20549;-10
2022/09/11 08:20:50;;;;;;;1.70;1.60;;;23.70;47.30;;;;;;5032031;28;20095;-10
2022/09/11 08:23:16;;;;;;;1.65;1.55;;;23.70;47.20;;;;;;5033874;28;20052;-10
2022/09/11 08:25:42;;;;;;;1.80;1.70;;;23.80;47.30;;;;;;5048396;28;20479;-10
2022/09/11 08:28:09;;;;;;;1.92;1.80;;;23.80;47.20;;;;;;5049351;28;20053;-9
2022/09/11 08:30:37;;;;;;;1.55;1.45;;;23.80;47.20;;;;;;5033058;28;20080;-9
2022/09/11 08:33:08;;;;;;;1.67;1.58;;;23.90;47.10;;;;;;5032325;28;20088;-10
2022/09/11 08:35:34;;;;;;;1.70;1.60;;;23.90;47.10;;;;;;5033652;28;20049;-10
2022/09/11 08:38:02;;;;;;;1.95;1.85;;;23.90;47.00;;;;;;5051321;28;20053;-9
2022/09/11 08:40:29;;;;;;;1.80;1.70;;;23.90;47.00;;;;;;5032910;28;20060;-9
2022/09/11 08:43:00;;;;;;;1.73;1.63;;;23.90;47.00;;;;;;5033644;28;20467;-9
2022/09/11 08:45:33;;;;;;;1.60;1.50;;;23.90;47.10;;;;;;5050796;28;20056;-9
2022/09/11 08:48:00;;;;;;;1.80;1.70;;;23.90;47.00;;;;;;5050887;28;20455;-10
2022/09/11 08:50:33;;;;;;;1.90;1.80;;;23.90;47.10;;;;;;5032622;28;20498;-10
2022/09/11 08:53:01;;;;;;;1.80;1.70;;;23.90;47.00;;;;;;5033568;28;20061;-10
2022/09/11 08:55:37;;;;;;;1.60;1.50;;;23.90;47.00;;;;;;5033319;28;20049;-9
2022/09/11 08:58:22;;;;;;;1.90;1.80;;;23.90;47.00;;;;;;5033154;28;20053;-10
2022/09/11 09:01:24;;;;;;;1.70;1.60;;;24.00;46.80;;;;;;5055148;28;20053;-9
2022/09/11 09:04:14;;;;;;;1.60;1.50;;;24.10;46.80;;;;;;5032127;28;20076;-10
2022/09/11 09:06:52;;;;;;;1.80;1.70;;;24.10;46.70;;;;;;5032744;28;20063;-9
2022/09/11 09:09:33;;;;;;;1.73;1.63;;;24.10;46.60;;;;;;5050652;28;20048;-9
2022/09/11 09:12:26;;;;;;;1.60;1.50;;;24.10;46.60;;;;;;5033190;28;20053;-10
2022/09/11 09:15:16;;;;;;;2.00;1.80;;;24.10;46.60;;;;;;5031343;28;20049;-10
2022/09/11 09:17:59;;;;;;;1.70;1.60;;;24.20;46.60;;;;;;5048931;28;20494;-10
2022/09/11 09:20:41;;;;;;;1.60;1.50;;;24.20;46.40;;;;;;5033103;28;20056;-10
2022/09/11 09:23:18;;;;;;;1.60;1.50;;;24.20;46.40;;;;;;5032593;28;20053;-10
2022/09/11 09:25:45;;;;;;;2.15;1.95;;;24.20;46.50;;;;;;5033061;28;20071;-9
2022/09/11 09:28:19;;;;;;;1.73;1.63;;;24.20;46.40;;;;;;5032453;28;20057;-10
2022/09/11 09:30:55;;;;;;;1.80;1.70;;;24.20;46.50;;;;;;5032446;28;20144;-9
2022/09/11 09:33:42;;;;;;;2.13;1.92;;;24.20;46.40;;;;;;5032868;28;20482;-9
2022/09/11 09:36:16;;;;;;;2.03;1.80;;;24.20;46.50;;;;;;5048922;28;20051;-10
2022/09/11 09:38:45;;;;;;;1.60;1.50;;;24.20;46.50;;;;;;5048768;28;20136;-10
2022/09/11 09:41:22;;;;;;;1.98;1.83;;;24.20;46.50;;;;;;5032818;28;20053;-9
2022/09/11 09:44:26;;;;;;;1.70;1.60;;;24.20;46.50;;;;;;5032588;28;20053;-9
2022/09/11 09:46:54;;;;;;;2.17;2.00;;;24.20;46.50;;;;;;5050008;28;20129;-10
2022/09/11 09:49:29;;;;;;;2.00;1.88;;;24.20;46.40;;;;;;5049979;28;20044;-9
2022/09/11 09:51:57;;;;;;;2.13;1.95;;;24.20;46.50;;;;;;5050424;28;20057;-10
2022/09/11 09:54:29;;;;;;;1.55;1.45;;;24.20;46.40;;;;;;5050007;28;20143;-9
2022/09/11 09:57:05;;;;;;;1.73;1.63;;;24.20;46.40;;;;;;5049948;28;20041;-10
2022/09/11 09:59:39;;;;;;;1.88;1.75;;;24.20;46.30;;;;;;5053347;28;20057;-9
2022/09/11 10:02:05;;;;;;;1.63;1.50;;;24.20;46.30;;;;;;5050219;28;20136;-9
2022/09/11 10:04:31;;;;;;;1.80;1.70;;;24.30;46.40;;;;;;5049987;28;20140;-10
2022/09/11 10:07:10;;;;;;;1.73;1.63;;;24.20;46.40;;;;;;5049864;28;20099;-10
2022/09/11 10:09:47;;;;;;;1.85;1.75;;;24.20;46.40;;;;;;5050234;28;20045;-9
2022/09/11 10:12:20;;;;;;;1.63;1.50;;;24.20;46.30;;;;;;5049799;28;20053;-9
2022/09/11 10:15:05;;;;;;;1.95;1.77;;;24.30;46.30;;;;;;5050183;28;20479;-10
2022/09/11 10:17:39;;;;;;;1.70;1.60;;;24.30;46.30;;;;;;5049324;28;20092;-10
2022/09/11 10:20:25;;;;;;;1.70;1.60;;;24.40;46.30;;;;;;5049410;28;20049;-10
2022/09/11 10:22:53;;;;;;;1.98;1.88;;;24.40;46.30;;;;;;5050036;28;20049;-9
2022/09/11 10:25:28;;;;;;;1.88;1.63;;;24.30;46.20;;;;;;5049681;28;20056;-9
2022/09/11 10:28:14;;;;;;;1.75;1.40;;;24.30;46.20;;;;;;5049521;28;20506;-11
2022/09/11 10:30:54;;;;;;;1.50;1.40;;;24.30;46.20;;;;;;5049484;28;20498;-10
2022/09/11 10:33:33;;;;;;;1.50;1.40;;;24.30;46.30;;;;;;5049606;28;20417;-10
2022/09/11 10:36:02;;;;;;;1.73;1.60;;;24.30;46.30;;;;;;5049732;28;20056;-9
2022/09/11 10:38:32;;;;;;;1.83;1.70;;;24.30;46.80;;;;;;5049292;28;20051;-10
2022/09/11 10:41:20;;;;;;;1.73;1.63;;;24.30;46.30;;;;;;5049435;28;20487;-10
2022/09/11 10:44:00;;;;;;;1.50;1.40;;;24.30;46.30;;;;;;5049616;28;20055;-9
2022/09/11 10:46:33;;;;;;;1.52;1.42;;;24.30;46.20;;;;;;5049539;28;20091;-9
2022/09/11 10:49:22;;;;;;;1.60;1.50;;;24.30;46.30;;;;;;5049589;28;20060;-10
2022/09/11 10:52:21;;;;;;;1.58;1.48;;;24.30;46.30;;;;;;5049533;28;20052;-9
2022/09/11 10:55:05;;;;;;;1.80;1.70;;;24.30;46.20;;;;;;5058192;28;20067;-9
2022/09/11 10:57:50;;;;;;;1.83;1.73;;;24.30;46.20;;;;;;5049382;28;20049;-10
2022/09/11 11:00:19;;;;;;;1.58;1.48;;;24.30;46.10;;;;;;5049105;28;20098;-9
2022/09/11 11:02:51;;;;;;;1.73;1.63;;;24.30;46.30;;;;;;5049282;28;20061;-9
2022/09/11 11:05:31;;;;;;;1.40;1.30;;;24.30;46.20;;;;;;5049082;28;20144;-9
2022/09/11 11:08:17;;;;;;;1.75;1.60;;;24.30;46.30;;;;;;5048888;28;20053;-10
2022/09/11 11:11:14;;;;;;;2.50;1.52;;;24.30;46.40;;;;;;5052373;28;20045;-9
2022/09/11 11:13:55;;;;;;;1.73;1.60;;;24.30;46.20;;;;;;5048960;28;20143;-10
2022/09/11 11:16:48;;;;;;;1.58;1.48;;;24.30;46.30;;;;;;5049074;28;20053;-10
2022/09/11 11:19:37;;;;;;;2.00;1.90;;;24.40;46.30;;;;;;5048526;28;20131;-10
2022/09/11 11:22:17;;;;;;;1.80;1.70;;;24.30;46.20;;;;;;5048851;28;20517;-9
2022/09/11 11:24:52;;;;;;;1.83;1.65;;;24.30;46.30;;;;;;5048538;28;20049;-9
2022/09/11 11:27:43;;;;;;;1.70;1.60;;;24.30;46.30;;;;;;5050958;28;20083;-9
2022/09/11 11:30:28;;;;;;;1.70;1.60;;;24.40;46.20;;;;;;5051623;28;20053;-9
2022/09/11 11:33:24;;;;;;;1.50;1.40;;;24.40;46.10;;;;;;5052125;28;20490;-10
2022/09/11 11:36:07;;;;;;;1.50;1.40;;;24.40;46.10;;;;;;5051804;28;20053;-10
2022/09/11 11:38:47;;;;;;;1.63;1.52;;;24.40;46.10;;;;;;5051905;28;20081;-10
2022/09/11 11:41:26;;;;;;;1.88;1.70;;;24.40;46.10;;;;;;5051697;28;20049;-9
2022/09/11 11:43:54;;;;;;;1.92;1.75;;;24.40;46.10;;;;;;5051751;28;20140;-9
2022/09/11 11:46:34;;;;;;;1.48;1.38;;;24.40;46.10;;;;;;5051590;28;20061;-9
2022/09/11 11:49:18;;;;;;;1.63;1.52;;;24.30;46.10;;;;;;5051666;28;20052;-10
2022/09/11 11:52:12;;;;;;;1.80;1.63;;;24.30;46.30;;;;;;5051917;28;20144;-9
2022/09/11 11:54:48;;;;;;;1.45;1.35;;;24.30;46.30;;;;;;5051547;28;20061;-9
2022/09/11 11:57:19;;;;;;;1.42;1.33;;;24.40;46.30;;;;;;5051319;28;20089;-9
2022/09/11 11:59:51;;;;;;;;;;;24.40;46.30;;;;;;5051678;28;20057;-10
2022/09/11 12:02:23;;;;;;;1.60;1.50;;;24.30;46.20;;;;;;5051523;28;19916;-9
2022/09/11 12:04:55;;;;;;;1.65;1.55;;;24.30;46.30;;;;;;5051578;28;20145;-9
2022/09/11 12:07:31;;;;;;;1.50;1.40;;;24.30;46.30;;;;;;5051248;28;20056;-10
2022/09/11 12:10:03;;;;;;;1.58;1.48;;;24.30;46.30;;;;;;5051068;28;20486;-10
2022/09/11 12:12:42;;;;;;;1.50;1.40;;;24.30;46.30;;;;;;5032943;28;20057;-9
2022/09/11 12:15:22;;;;;;;1.50;1.40;;;24.30;46.30;;;;;;5051390;28;20057;-9
2022/09/11 12:18:23;;;;;;;1.50;1.40;;;24.30;46.30;;;;;;5051569;28;20101;-10
2022/09/11 12:20:48;;;;;;;1.50;1.40;;;24.30;46.30;;;;;;5050940;28;20406;-10
2022/09/11 12:23:33;;;;;;;1.67;1.58;;;24.30;46.20;;;;;;5051069;28;20045;-10
2022/09/11 12:26:14;;;;;;;1.60;1.50;;;24.30;46.30;;;;;;5051186;28;20071;-9
2022/09/11 12:28:41;;;;;;;1.50;1.40;;;24.30;46.30;;;;;;5051181;28;20048;-10
2022/09/11 12:31:10;;;;;;;1.60;1.50;;;24.40;46.30;;;;;;5051363;28;20432;-9
2022/09/11 12:33:47;;;;;;;1.67;1.58;;;24.30;46.20;;;;;;5051088;28;20053;-9
2022/09/11 12:36:35;;;;;;;1.70;1.60;;;24.40;46.20;;;;;;5051087;28;20076;-10
2022/09/11 12:39:02;;;;;;;1.70;1.60;;;24.30;46.20;;;;;;5049694;28;20057;-9
2022/09/11 12:41:34;;;;;;;1.70;1.60;;;24.40;46.30;;;;;;5050995;28;20053;-10
2022/09/11 12:44:02;;;;;;;1.60;1.50;;;24.30;46.20;;;;;;5051269;28;20088;-10
2022/09/11 12:46:28;;;;;;;1.60;1.50;;;24.30;46.20;;;;;;5051154;28;20406;-9
2022/09/11 12:48:55;;;;;;;1.50;1.40;;;24.30;46.20;;;;;;5050779;28;20064;-10
2022/09/11 12:51:32;;;;;;;1.60;1.50;;;24.40;46.20;;;;;;5050990;28;20053;-10
2022/09/11 12:54:01;;;;;;;1.52;1.42;;;24.40;46.20;;;;;;5050765;28;20064;-10
2022/09/11 12:56:33;;;;;;;1.60;1.50;;;24.40;46.20;;;;;;5050879;28;20041;-9
2022/09/11 12:59:03;;;;;;;1.52;1.42;;;24.40;46.10;;;;;;5050837;28;20064;-10
2022/09/11 13:01:32;;;;;;;1.58;1.48;;;24.40;46.10;;;;;;5033160;28;20049;-9
2022/09/11 13:04:10;;;;;;;1.58;1.48;;;24.40;46.10;;;;;;5051009;28;20060;-10
2022/09/11 13:06:53;;;;;;;1.60;1.50;;;24.40;46.10;;;;;;5050986;28;20052;-10
2022/09/11 13:09:21;;;;;;;1.58;1.48;;;24.40;46.20;;;;;;5050419;28;20189;-10
2022/09/11 13:11:49;;;;;;;1.60;1.50;;;24.40;46.20;;;;;;5050647;28;20052;-9
2022/09/11 13:14:29;;;;;;;1.60;1.50;;;24.40;46.70;;;;;;5032635;28;20063;-10
2022/09/11 13:17:00;;;;;;;1.50;1.40;;;24.40;46.10;;;;;;5050903;28;20402;-9
2022/09/11 13:19:36;;;;;;;;;;;24.30;46.10;;;;;;5050947;28;20056;-9